Time;durP1;ratioP1;P1;durP2;ratioP2;P2;SDS_P1;SDS_P2;PMS_P1;PMS_P2;Temp;Humidity;BMP_temperature;BMP_pressure;BME280_temperature;BME280_humidity;BME280_pressure;Samples;Min_cycle;Max_cycle;Signal;HPM_P1;HPM_P2
2022/10/26 00:00:29;;;;;;;6.53;2.97;;;12.10;99.90;;;;;;5031960;28;20407;-69
2022/10/26 00:02:55;;;;;;;12.53;2.90;;;12.10;99.90;;;;;;5033442;28;20232;-69
2022/10/26 00:05:24;;;;;;;4.20;2.30;;;12.10;99.90;;;;;;5037914;28;20187;-69
2022/10/26 00:07:49;;;;;;;4.67;3.10;;;12.10;99.90;;;;;;5031700;28;20409;-70
2022/10/26 00:10:15;;;;;;;3.60;3.07;;;12.10;99.90;;;;;;5031588;28;20426;-71
2022/10/26 00:12:41;;;;;;;7.80;2.90;;;12.10;99.90;;;;;;5038392;28;20168;-71
2022/10/26 00:15:07;;;;;;;5.43;2.50;;;12.10;99.90;;;;;;5063622;28;20485;-70
2022/10/26 00:17:33;;;;;;;7.60;2.70;;;12.10;99.90;;;;;;5063699;28;20167;-70
2022/10/26 00:19:59;;;;;;;7.20;3.00;;;12.20;99.90;;;;;;5051496;28;20839;-70
2022/10/26 00:22:25;;;;;;;6.80;2.80;;;12.20;99.90;;;;;;5051762;28;20171;-69
2022/10/26 00:24:51;;;;;;;3.57;2.63;;;12.20;99.90;;;;;;5033298;28;20426;-70
2022/10/26 00:27:17;;;;;;;5.20;3.40;;;12.10;99.90;;;;;;5031521;28;20549;-70
2022/10/26 00:29:42;;;;;;;7.13;3.60;;;12.10;99.90;;;;;;5031464;28;20203;-70
2022/10/26 00:32:08;;;;;;;6.90;3.50;;;12.10;99.90;;;;;;5031433;28;20186;-70
2022/10/26 00:34:33;;;;;;;7.83;3.20;;;12.10;99.90;;;;;;5046200;28;20195;-70
2022/10/26 00:36:59;;;;;;;5.00;2.40;;;12.10;99.90;;;;;;5055434;28;20181;-70
2022/10/26 00:39:24;;;;;;;7.50;3.10;;;12.10;99.90;;;;;;5055338;28;20226;-70
2022/10/26 00:41:50;;;;;;;4.33;3.10;;;12.10;99.90;;;;;;5054975;28;20250;-69
2022/10/26 00:44:46;;;;;;;5.00;2.87;;;12.10;99.90;;;;;;5053876;28;20206;-70
2022/10/26 00:47:30;;;;;;;3.67;2.10;;;12.20;99.90;;;;;;5054829;28;20171;-69
2022/10/26 00:50:01;;;;;;;4.70;2.60;;;12.20;99.90;;;;;;5055228;28;20524;-70
2022/10/26 00:52:27;;;;;;;3.87;2.53;;;12.20;99.90;;;;;;5055422;28;20882;-70
2022/10/26 00:54:53;;;;;;;2.83;2.23;;;12.20;99.90;;;;;;5037270;28;20567;-70
2022/10/26 00:57:19;;;;;;;8.83;3.10;;;12.20;99.90;;;;;;5050966;28;20421;-70
2022/10/26 00:59:46;;;;;;;2.73;2.20;;;12.20;99.90;;;;;;5043711;28;20199;-70
2022/10/26 01:02:12;;;;;;;8.43;2.67;;;12.20;99.90;;;;;;5034783;28;20763;-70
2022/10/26 01:04:38;;;;;;;3.10;2.50;;;12.20;99.90;;;;;;5034334;28;20402;-69
2022/10/26 01:07:05;;;;;;;7.33;2.57;;;12.20;99.90;;;;;;5033239;28;20453;-70
2022/10/26 01:09:31;;;;;;;3.33;2.60;;;12.20;99.90;;;;;;5043854;28;20225;-71
2022/10/26 01:11:57;;;;;;;3.47;2.17;;;12.20;99.90;;;;;;5054404;28;20988;-69
2022/10/26 01:14:25;;;;;;;3.30;3.00;;;12.20;99.90;;;;;;5053901;28;20452;-70
2022/10/26 01:17:10;;;;;;;1.90;1.60;;;12.20;99.90;;;;;;5054139;28;20594;-70
2022/10/26 01:19:46;;;;;;;2.77;1.93;;;12.20;99.90;;;;;;5063545;28;20451;-71
2022/10/26 01:22:19;;;;;;;3.87;2.47;;;12.30;99.90;;;;;;5074178;28;20470;-70
2022/10/26 01:25:12;;;;;;;3.27;2.23;;;12.30;99.90;;;;;;5073618;28;20396;-70
2022/10/26 01:27:38;;;;;;;3.50;2.47;;;12.30;99.90;;;;;;5073764;28;20481;-70
2022/10/26 01:30:24;;;;;;;10.60;2.27;;;12.30;99.90;;;;;;5060323;28;20448;-70
2022/10/26 01:33:20;;;;;;;2.53;2.03;;;12.30;99.90;;;;;;5053429;28;20411;-70
2022/10/26 01:35:51;;;;;;;5.57;2.27;;;12.30;99.90;;;;;;5054824;28;20408;-71
2022/10/26 01:38:21;;;;;;;4.83;1.67;;;12.30;99.90;;;;;;5097186;28;20465;-71
2022/10/26 01:41:04;;;;;;;3.17;2.30;;;12.30;99.90;;;;;;5072428;28;20431;-69
2022/10/26 01:43:33;;;;;;;4.23;2.33;;;12.30;99.90;;;;;;5074051;28;20409;-70
2022/10/26 01:46:00;;;;;;;2.60;2.13;;;12.30;99.90;;;;;;5080777;28;20450;-70
2022/10/26 01:48:28;;;;;;;3.20;2.40;;;12.30;99.90;;;;;;5086081;28;21030;-71
2022/10/26 01:50:56;;;;;;;3.10;2.40;;;12.30;99.90;;;;;;5057763;28;20484;-69
2022/10/26 01:53:24;;;;;;;3.10;2.23;;;12.30;99.90;;;;;;5060288;28;20481;-70
2022/10/26 01:55:51;;;;;;;3.63;2.30;;;12.40;99.90;;;;;;5088984;28;20409;-70
2022/10/26 01:58:38;;;;;;;2.90;1.87;;;12.30;99.90;;;;;;5053465;28;20433;-69
2022/10/26 02:01:14;;;;;;;5.33;2.47;;;12.30;99.90;;;;;;5038058;28;20417;-70
2022/10/26 02:03:54;;;;;;;5.93;2.50;;;12.40;99.90;;;;;;5053407;28;20401;-70
2022/10/26 02:06:38;;;;;;;5.17;2.10;;;12.40;99.90;;;;;;5051854;28;20475;-70
2022/10/26 02:09:32;;;;;;;4.10;2.23;;;12.50;99.90;;;;;;5056637;28;20969;-71
2022/10/26 02:12:00;;;;;;;4.60;1.83;;;12.50;99.90;;;;;;5062751;28;20455;-70
2022/10/26 02:14:40;;;;;;;3.23;2.03;;;12.40;99.90;;;;;;5079091;28;20456;-70
2022/10/26 02:17:27;;;;;;;5.37;2.50;;;12.40;99.90;;;;;;5075387;28;20419;-70
2022/10/26 02:20:02;;;;;;;4.77;2.30;;;12.40;99.90;;;;;;5067372;28;20445;-70
2022/10/26 02:22:49;;;;;;;5.30;2.00;;;12.50;99.90;;;;;;5056174;28;20420;-70
2022/10/26 02:25:27;;;;;;;3.60;2.00;;;12.50;99.90;;;;;;5059290;28;20437;-70
2022/10/26 02:28:06;;;;;;;6.30;2.00;;;12.50;99.90;;;;;;5089446;28;20516;-70
2022/10/26 02:30:33;;;;;;;3.80;2.00;;;12.50;99.90;;;;;;5070689;28;20443;-70
2022/10/26 02:33:00;;;;;;;2.87;2.67;;;12.50;99.90;;;;;;5072457;28;20507;-70
2022/10/26 02:35:29;;;;;;;4.87;2.73;;;12.50;99.90;;;;;;5072482;28;20404;-70
2022/10/26 02:37:57;;;;;;;7.57;2.40;;;12.50;99.90;;;;;;5072666;28;20412;-70
2022/10/26 02:40:26;;;;;;;8.10;2.80;;;12.60;99.90;;;;;;5055581;28;20421;-70
2022/10/26 02:42:54;;;;;;;16.97;3.07;;;12.60;99.90;;;;;;5052625;28;20401;-69
2022/10/26 02:45:30;;;;;;;3.60;2.40;;;12.60;99.90;;;;;;5052271;28;20420;-69
2022/10/26 02:47:56;;;;;;;6.67;2.80;;;12.60;99.90;;;;;;5052529;28;20756;-70
2022/10/26 02:50:29;;;;;;;8.20;3.30;;;12.70;99.90;;;;;;5054448;28;20486;-70
2022/10/26 02:53:17;;;;;;;3.60;3.00;;;12.70;99.90;;;;;;5065061;28;20397;-71
2022/10/26 02:55:48;;;;;;;4.87;3.33;;;12.70;99.90;;;;;;5088894;28;20517;-69
2022/10/26 02:58:25;;;;;;;2.67;2.37;;;12.70;99.90;;;;;;5052769;28;20443;-69
2022/10/26 03:00:51;;;;;;;2.87;2.07;;;12.60;99.90;;;;;;5071147;28;20414;-69
2022/10/26 03:03:18;;;;;;;5.50;2.97;;;12.70;99.90;;;;;;5072428;28;20820;-70
2022/10/26 03:05:43;;;;;;;3.00;2.70;;;12.70;99.90;;;;;;5072254;28;20412;-70
2022/10/26 03:08:09;;;;;;;4.80;2.50;;;12.70;99.90;;;;;;5071870;28;20415;-70
2022/10/26 03:10:44;;;;;;;3.30;2.60;;;12.80;99.90;;;;;;5032264;28;20179;-70
2022/10/26 03:13:12;;;;;;;4.50;2.03;;;12.80;99.90;;;;;;5042122;28;20214;-70
2022/10/26 03:15:37;;;;;;;5.13;2.90;;;12.80;99.90;;;;;;5071693;28;20436;-70
2022/10/26 03:18:04;;;;;;;4.70;2.70;;;12.80;99.90;;;;;;5076801;28;20415;-71
2022/10/26 03:20:30;;;;;;;7.93;2.10;;;12.80;99.90;;;;;;5085576;28;20565;-71
2022/10/26 03:22:56;;;;;;;2.63;2.43;;;12.90;99.90;;;;;;5083376;28;20419;-70
2022/10/26 03:25:23;;;;;;;2.43;1.90;;;12.90;99.90;;;;;;5051657;28;20808;-70
2022/10/26 03:28:00;;;;;;;2.10;1.90;;;12.90;99.90;;;;;;5052352;28;20175;-70
2022/10/26 03:30:26;;;;;;;3.77;1.90;;;12.90;99.90;;;;;;5052738;28;20476;-70
2022/10/26 03:32:52;;;;;;;6.83;2.77;;;12.90;99.90;;;;;;5093064;28;20405;-70
2022/10/26 03:35:17;;;;;;;3.93;2.67;;;12.90;99.90;;;;;;5083512;28;20409;-71
2022/10/26 03:37:43;;;;;;;5.80;2.30;;;12.90;99.90;;;;;;5084257;28;20548;-69
2022/10/26 03:40:09;;;;;;;4.10;2.90;;;13.00;99.90;;;;;;5071822;28;20201;-69
2022/10/26 03:42:35;;;;;;;2.50;2.10;;;13.00;99.90;;;;;;5076387;28;20166;-70
2022/10/26 03:45:01;;;;;;;3.93;2.47;;;13.00;99.90;;;;;;5051186;28;20453;-70
2022/10/26 03:47:27;;;;;;;3.40;2.50;;;13.10;99.90;;;;;;5051778;28;20495;-70
2022/10/26 03:49:52;;;;;;;3.23;2.20;;;13.10;99.90;;;;;;5063986;28;20217;-71
2022/10/26 03:52:18;;;;;;;3.07;2.27;;;13.10;99.90;;;;;;5071804;28;20563;-69
2022/10/26 03:54:43;;;;;;;3.10;1.77;;;13.10;99.90;;;;;;5071485;28;20197;-70
2022/10/26 03:57:09;;;;;;;4.20;2.30;;;13.10;99.90;;;;;;5072828;28;20212;-70
2022/10/26 03:59:34;;;;;;;5.73;2.07;;;13.10;99.90;;;;;;5055104;28;20624;-71
2022/10/26 04:02:00;;;;;;;3.07;2.10;;;13.10;99.90;;;;;;5085829;28;20166;-71
2022/10/26 04:04:25;;;;;;;4.77;2.20;;;13.20;99.90;;;;;;5050496;28;20270;-71
2022/10/26 04:06:51;;;;;;;2.70;1.83;;;13.20;99.90;;;;;;5052241;28;20210;-70
2022/10/26 04:09:16;;;;;;;2.93;2.13;;;13.30;99.90;;;;;;5067067;28;20201;-70
2022/10/26 04:11:42;;;;;;;3.97;2.10;;;13.30;99.90;;;;;;5077540;28;20201;-71
2022/10/26 04:14:07;;;;;;;6.47;2.40;;;13.30;99.90;;;;;;5082821;28;20210;-71
2022/10/26 04:16:33;;;;;;;3.07;2.23;;;13.40;99.90;;;;;;5075890;28;20174;-72
2022/10/26 04:18:59;;;;;;;4.30;2.30;;;13.40;99.90;;;;;;5063041;28;20199;-70
2022/10/26 04:21:24;;;;;;;5.70;2.70;;;13.40;99.90;;;;;;5055396;28;20534;-70
2022/10/26 04:23:49;;;;;;;5.43;2.43;;;13.40;99.90;;;;;;5055274;28;20248;-70
2022/10/26 04:26:15;;;;;;;5.17;2.90;;;13.40;99.90;;;;;;5056161;28;20628;-71
2022/10/26 04:28:41;;;;;;;4.37;2.20;;;13.50;99.90;;;;;;5081385;28;20196;-71
2022/10/26 04:31:06;;;;;;;8.73;2.90;;;13.50;99.90;;;;;;5039355;28;20255;-70
2022/10/26 04:33:32;;;;;;;5.17;2.67;;;13.50;99.90;;;;;;5035462;28;20282;-70
2022/10/26 04:36:01;;;;;;;7.10;2.80;;;13.50;99.90;;;;;;5040302;28;20219;-69
2022/10/26 04:38:27;;;;;;;10.00;2.93;;;13.50;99.90;;;;;;5045044;28;20281;-71
2022/10/26 04:40:52;;;;;;;2.50;2.20;;;13.50;99.90;;;;;;5055143;28;20417;-71
2022/10/26 04:43:18;;;;;;;5.33;3.40;;;13.50;99.90;;;;;;5055258;28;20193;-70
2022/10/26 04:45:43;;;;;;;3.40;2.50;;;13.50;99.90;;;;;;5054995;28;20178;-71
2022/10/26 04:48:11;;;;;;;3.23;2.30;;;13.50;99.90;;;;;;5068131;28;20231;-71
2022/10/26 04:50:37;;;;;;;6.17;2.80;;;13.60;99.90;;;;;;5079370;28;20224;-71
2022/10/26 04:53:07;;;;;;;3.30;2.83;;;13.60;99.90;;;;;;5075126;28;20405;-70
2022/10/26 04:55:34;;;;;;;6.27;2.80;;;13.60;99.90;;;;;;5074618;28;20440;-70
2022/10/26 04:57:59;;;;;;;3.27;2.47;;;13.50;99.90;;;;;;5067073;28;20422;-71
2022/10/26 05:00:26;;;;;;;4.60;3.20;;;13.60;99.90;;;;;;5054620;28;20413;-70
2022/10/26 05:02:51;;;;;;;3.83;2.97;;;13.60;99.90;;;;;;5054584;28;20163;-70
2022/10/26 05:05:17;;;;;;;4.90;2.80;;;13.60;99.90;;;;;;5054266;28;20508;-71
2022/10/26 05:07:43;;;;;;;5.70;3.23;;;13.60;99.90;;;;;;5068594;28;20215;-70
2022/10/26 05:10:09;;;;;;;10.80;3.27;;;13.60;99.90;;;;;;5085527;28;20433;-71
2022/10/26 05:12:34;;;;;;;6.03;2.40;;;13.60;99.90;;;;;;5087302;28;20174;-71
2022/10/26 05:15:00;;;;;;;4.20;2.50;;;13.60;99.90;;;;;;5078553;28;20456;-69
2022/10/26 05:17:26;;;;;;;4.07;2.87;;;13.60;99.90;;;;;;5065920;28;20178;-69
2022/10/26 05:19:54;;;;;;;3.20;2.40;;;13.60;99.90;;;;;;5067728;28;20232;-69
2022/10/26 05:22:25;;;;;;;4.83;2.47;;;13.60;99.90;;;;;;5074010;28;20623;-69
2022/10/26 05:24:51;;;;;;;4.77;3.23;;;13.60;99.90;;;;;;5074006;28;20408;-71
2022/10/26 05:27:16;;;;;;;4.50;2.20;;;13.60;99.90;;;;;;5080887;28;20420;-70
2022/10/26 05:29:42;;;;;;;4.20;2.50;;;13.60;99.90;;;;;;5061477;28;20206;-71
2022/10/26 05:32:07;;;;;;;3.20;2.40;;;13.70;99.90;;;;;;5054528;28;20171;-70
2022/10/26 05:34:33;;;;;;;3.80;2.77;;;13.70;99.90;;;;;;5059469;28;20194;-71
2022/10/26 05:36:59;;;;;;;3.07;2.13;;;13.80;99.90;;;;;;5096663;28;20167;-71
2022/10/26 05:39:24;;;;;;;5.40;2.80;;;13.80;99.90;;;;;;5088779;28;20219;-69
2022/10/26 05:41:50;;;;;;;3.83;2.10;;;13.80;99.90;;;;;;5033974;28;20172;-70
2022/10/26 05:44:15;;;;;;;2.20;1.53;;;13.80;99.90;;;;;;5032478;28;20171;-70
2022/10/26 05:46:41;;;;;;;2.40;1.17;;;13.80;99.90;;;;;;5033559;28;20175;-71
2022/10/26 05:49:06;;;;;;;4.87;1.53;;;14.00;99.90;;;;;;5046036;28;20202;-70
2022/10/26 05:51:33;;;;;;;2.53;1.40;;;14.10;99.90;;;;;;5073918;28;20474;-69
2022/10/26 05:53:59;;;;;;;1.80;1.37;;;14.20;99.90;;;;;;5073575;28;20236;-69
2022/10/26 05:56:37;;;;;;;2.07;1.50;;;14.20;99.90;;;;;;5073258;28;20405;-70
2022/10/26 05:59:09;;;;;;;3.20;1.60;;;14.20;99.90;;;;;;5072475;28;20190;-70
2022/10/26 06:02:13;;;;;;;3.43;1.40;;;14.30;99.90;;;;;;5061098;28;20434;-69
2022/10/26 06:04:46;;;;;;;2.17;1.73;;;14.30;99.90;;;;;;5096430;28;20413;-71
2022/10/26 06:07:19;;;;;;;5.43;1.90;;;14.40;99.90;;;;;;5097634;28;20942;-71
2022/10/26 06:09:45;;;;;;;3.23;1.47;;;14.40;99.90;;;;;;5087410;28;20469;-70
2022/10/26 06:12:12;;;;;;;2.53;1.70;;;14.40;99.90;;;;;;5034302;28;20776;-70
2022/10/26 06:14:37;;;;;;;3.63;2.37;;;14.40;99.90;;;;;;5033040;28;20560;-69
2022/10/26 06:17:35;;;;;;;5.37;2.10;;;14.50;99.90;;;;;;5033568;28;20489;-70
2022/10/26 06:20:25;;;;;;;3.63;1.60;;;14.50;99.90;;;;;;5059469;28;20202;-71
2022/10/26 06:23:36;;;;;;;5.13;2.07;;;14.50;99.90;;;;;;5076074;28;20381;-69
2022/10/26 06:26:15;;;;;;;4.30;1.80;;;14.60;99.90;;;;;;5086739;28;20411;-70
2022/10/26 06:28:46;;;;;;;2.77;2.40;;;14.60;99.90;;;;;;5081268;28;20999;-71
2022/10/26 06:31:13;;;;;;;3.83;2.50;;;14.60;99.90;;;;;;5052719;28;20405;-71
2022/10/26 06:33:39;;;;;;;6.13;3.20;;;14.70;99.90;;;;;;5052236;28;20449;-69
2022/10/26 06:36:21;;;;;;;8.67;4.47;;;14.70;99.90;;;;;;5058484;28;20408;-70
2022/10/26 06:38:51;;;;;;;8.30;2.87;;;14.80;99.90;;;;;;5055169;28;21513;-70
2022/10/26 06:41:18;;;;;;;7.83;2.43;;;14.70;99.90;;;;;;5072633;28;20434;-71
2022/10/26 06:43:44;;;;;;;4.40;2.40;;;14.70;99.90;;;;;;5072322;28;20499;-71
2022/10/26 06:46:10;;;;;;;4.90;1.70;;;14.70;99.90;;;;;;5072945;28;20462;-70
2022/10/26 06:49:05;;;;;;;6.70;2.13;;;14.70;99.90;;;;;;5072045;28;20192;-70
2022/10/26 06:51:41;;;;;;;3.10;1.90;;;14.70;99.90;;;;;;5032626;28;20176;-70
2022/10/26 06:54:32;;;;;;;3.07;1.70;;;14.70;99.90;;;;;;5049135;28;20452;-69
2022/10/26 06:56:58;;;;;;;4.27;1.73;;;14.60;99.90;;;;;;5033447;28;20429;-70
2022/10/26 06:59:46;;;;;;;2.43;1.50;;;14.50;99.90;;;;;;5033395;28;20422;-71
2022/10/26 07:02:13;;;;;;;2.27;1.40;;;14.40;99.90;;;;;;5072250;28;20225;-74
2022/10/26 07:04:39;;;;;;;6.23;2.60;;;14.40;99.90;;;;;;5039390;28;20429;-73
2022/10/26 07:07:05;;;;;;;2.70;2.13;;;14.30;99.90;;;;;;5074596;28;20921;-71
2022/10/26 07:09:30;;;;;;;4.20;3.50;;;14.20;99.90;;;;;;5071317;28;20423;-70
2022/10/26 07:11:56;;;;;;;5.53;3.50;;;14.30;99.90;;;;;;5072195;28;20174;-71
2022/10/26 07:14:21;;;;;;;6.50;3.70;;;14.30;99.90;;;;;;5071742;28;20189;-71
2022/10/26 07:16:47;;;;;;;4.87;3.70;;;14.30;99.90;;;;;;5055752;28;20185;-71
2022/10/26 07:19:12;;;;;;;5.17;3.00;;;14.30;99.90;;;;;;5051962;28;20182;-71
2022/10/26 07:21:38;;;;;;;6.53;3.90;;;14.30;99.90;;;;;;5052038;28;20167;-71
2022/10/26 07:24:04;;;;;;;9.20;4.53;;;14.40;99.90;;;;;;5084220;28;20186;-71
2022/10/26 07:26:29;;;;;;;6.80;3.90;;;14.40;99.90;;;;;;5068920;28;20261;-71
2022/10/26 07:28:55;;;;;;;7.43;4.50;;;14.40;99.90;;;;;;5072004;28;20197;-71
2022/10/26 07:31:20;;;;;;;6.23;5.10;;;14.40;99.90;;;;;;5071935;28;20206;-71
2022/10/26 07:33:46;;;;;;;6.43;3.80;;;14.40;99.90;;;;;;5071895;28;20422;-70
2022/10/26 07:36:11;;;;;;;5.50;3.20;;;14.50;99.90;;;;;;5058456;28;20577;-70
2022/10/26 07:38:38;;;;;;;8.00;4.50;;;14.40;99.90;;;;;;5083977;28;20198;-70
2022/10/26 07:41:05;;;;;;;8.60;4.33;;;14.40;99.90;;;;;;5051912;28;20788;-70
2022/10/26 07:43:30;;;;;;;6.13;3.63;;;14.50;99.90;;;;;;5051848;28;20404;-70
2022/10/26 07:45:56;;;;;;;9.20;5.10;;;14.50;99.90;;;;;;5064220;28;20423;-71
2022/10/26 07:48:21;;;;;;;8.50;5.77;;;14.50;99.90;;;;;;5075960;28;20197;-70
2022/10/26 07:50:47;;;;;;;11.83;6.50;;;14.60;99.90;;;;;;5075851;28;20271;-70
2022/10/26 07:53:13;;;;;;;5.20;3.10;;;14.70;99.90;;;;;;5074746;28;20181;-71
2022/10/26 07:55:39;;;;;;;4.30;2.97;;;14.80;99.90;;;;;;5074394;28;20486;-72
2022/10/26 07:58:04;;;;;;;5.43;2.50;;;15.00;99.90;;;;;;5075997;28;20163;-70
2022/10/26 08:00:30;;;;;;;4.10;2.23;;;15.20;99.90;;;;;;5075698;28;20641;-70
2022/10/26 08:02:55;;;;;;;2.83;2.40;;;15.30;99.90;;;;;;5075880;28;20174;-71
2022/10/26 08:05:21;;;;;;;3.80;2.23;;;15.50;99.90;;;;;;5068636;28;20174;-70
2022/10/26 08:07:47;;;;;;;2.27;1.67;;;15.70;99.90;;;;;;5056695;28;20573;-70
2022/10/26 08:10:13;;;;;;;2.50;2.30;;;16.10;99.90;;;;;;5055549;28;20252;-70
2022/10/26 08:12:40;;;;;;;4.50;2.60;;;16.50;99.90;;;;;;5055505;28;20186;-70
2022/10/26 08:15:06;;;;;;;7.27;2.43;;;17.10;99.90;;;;;;5087497;28;20475;-70
2022/10/26 08:17:32;;;;;;;4.50;2.90;;;17.90;99.90;;;;;;5074493;28;20468;-70
2022/10/26 08:19:57;;;;;;;4.60;3.20;;;18.50;99.90;;;;;;5075315;28;20531;-71
2022/10/26 08:22:23;;;;;;;4.13;2.27;;;19.00;99.90;;;;;;5075823;28;20404;-70
2022/10/26 08:24:49;;;;;;;2.43;1.90;;;19.50;99.90;;;;;;5070919;28;20301;-71
2022/10/26 08:27:14;;;;;;;3.97;2.10;;;19.90;99.90;;;;;;5055266;28;20186;-71
2022/10/26 08:29:40;;;;;;;5.43;2.10;;;20.70;99.90;;;;;;5055078;28;20191;-71
2022/10/26 08:32:06;;;;;;;4.33;2.07;;;21.60;99.90;;;;;;5057545;28;20226;-72
2022/10/26 08:34:32;;;;;;;3.70;2.30;;;22.10;99.90;;;;;;5063257;28;20488;-72
2022/10/26 08:36:57;;;;;;;3.03;1.97;;;21.60;99.90;;;;;;5083440;28;20174;-72
2022/10/26 08:39:23;;;;;;;4.17;2.33;;;21.10;99.90;;;;;;5084806;28;20242;-70
2022/10/26 08:41:54;;;;;;;5.60;1.50;;;20.50;99.90;;;;;;5085901;28;20257;-71
2022/10/26 08:44:26;;;;;;;3.37;1.60;;;19.70;99.90;;;;;;5083775;28;20200;-72
2022/10/26 08:46:59;;;;;;;3.20;1.73;;;19.20;99.90;;;;;;5069100;28;20495;-71
2022/10/26 08:49:29;;;;;;;5.00;1.87;;;18.70;99.90;;;;;;5062842;28;20452;-70
2022/10/26 08:51:59;;;;;;;3.40;2.10;;;18.30;99.90;;;;;;5054955;28;20488;-70
2022/10/26 08:54:37;;;;;;;3.47;2.70;;;18.10;99.90;;;;;;5056482;28;21129;-71
2022/10/26 08:57:37;;;;;;;3.10;1.63;;;17.80;99.90;;;;;;5085621;28;20424;-71
2022/10/26 09:00:14;;;;;;;3.70;1.80;;;17.70;99.90;;;;;;5084325;28;20440;-71
2022/10/26 09:02:40;;;;;;;6.97;1.90;;;17.60;99.90;;;;;;5085552;28;20411;-71
2022/10/26 09:05:15;;;;;;;2.50;1.60;;;17.70;99.90;;;;;;5073429;28;20421;-70
2022/10/26 09:08:10;;;;;;;2.03;1.30;;;17.80;99.90;;;;;;5061155;28;20170;-70
2022/10/26 09:10:52;;;;;;;1.73;1.43;;;17.90;99.90;;;;;;5074443;28;20408;-70
2022/10/26 09:13:23;;;;;;;4.50;1.90;;;18.00;99.90;;;;;;5074238;28;20413;-70
2022/10/26 09:15:56;;;;;;;5.83;1.60;;;18.50;99.90;;;;;;5074149;28;20396;-70
2022/10/26 09:19:02;;;;;;;2.53;1.50;;;19.60;99.90;;;;;;5061538;28;20439;-71
2022/10/26 09:22:04;;;;;;;3.10;2.00;;;20.40;99.90;;;;;;5054026;28;20917;-71
2022/10/26 09:24:46;;;;;;;3.10;1.80;;;21.20;99.90;;;;;;5086263;28;20409;-71
2022/10/26 09:27:24;;;;;;;3.03;2.00;;;21.80;99.90;;;;;;5055313;28;20429;-71
2022/10/26 09:29:51;;;;;;;3.33;2.00;;;22.70;99.90;;;;;;5034118;28;20488;-71
2022/10/26 09:32:25;;;;;;;3.27;1.97;;;23.90;99.90;;;;;;5034117;28;20409;-71
2022/10/26 09:34:58;;;;;;;4.30;2.10;;;24.80;99.90;;;;;;5039354;28;20480;-72
2022/10/26 09:37:39;;;;;;;3.40;1.73;;;25.90;99.90;;;;;;5045328;28;20453;-73
2022/10/26 09:40:29;;;;;;;3.70;1.60;;;26.40;99.90;;;;;;5073753;28;20875;-69
2022/10/26 09:43:00;;;;;;;3.40;1.63;;;26.40;98.20;;;;;;5073874;28;20427;-69
2022/10/26 09:45:32;;;;;;;3.33;2.27;;;26.40;97.10;;;;;;5075328;28;20767;-68
2022/10/26 09:48:14;;;;;;;4.50;1.50;;;27.10;95.70;;;;;;5070274;28;20424;-69
2022/10/26 09:50:46;;;;;;;4.13;1.87;;;27.90;94.00;;;;;;5074920;28;20846;-69
2022/10/26 09:53:11;;;;;;;4.60;2.27;;;28.70;90.70;;;;;;5033592;28;20414;-69
2022/10/26 09:55:49;;;;;;;2.73;1.50;;;29.20;89.40;;;;;;5034546;28;20742;-68
2022/10/26 09:58:26;;;;;;;4.50;1.70;;;30.10;77.70;;;;;;5046752;28;20173;-69
2022/10/26 10:00:52;;;;;;;2.67;1.40;;;31.30;75.00;;;;;;5056922;28;20933;-69
2022/10/26 10:03:25;;;;;;;3.10;1.40;;;31.60;69.60;;;;;;5053096;28;20402;-69
2022/10/26 10:05:51;;;;;;;3.53;1.50;;;31.90;65.80;;;;;;5053542;28;20393;-70
2022/10/26 10:08:25;;;;;;;2.23;1.40;;;32.70;64.40;;;;;;5067574;28;20416;-70
2022/10/26 10:11:12;;;;;;;2.50;1.60;;;33.50;59.40;;;;;;5079474;28;20245;-71
2022/10/26 10:13:41;;;;;;;2.67;1.70;;;34.60;57.90;;;;;;5080554;28;20781;-69
2022/10/26 10:16:21;;;;;;;4.23;1.53;;;35.00;55.90;;;;;;5072769;28;20436;-70
2022/10/26 10:18:56;;;;;;;3.90;2.07;;;35.60;54.00;;;;;;5059733;28;20437;-69
2022/10/26 10:21:53;;;;;;;1.73;1.40;;;35.70;51.50;;;;;;5053196;28;20485;-70
2022/10/26 10:24:31;;;;;;;2.97;1.70;;;36.80;51.60;;;;;;5047381;28;20928;-70
2022/10/26 10:27:02;;;;;;;3.60;1.90;;;36.30;49.50;;;;;;5070456;28;20482;-69
2022/10/26 10:29:33;;;;;;;1.90;1.80;;;35.80;50.80;;;;;;5080409;28;20458;-71
2022/10/26 10:32:03;;;;;;;3.07;1.30;;;36.00;50.30;;;;;;5080205;28;20407;-71
2022/10/26 10:34:30;;;;;;;3.33;1.60;;;36.80;49.30;;;;;;5078818;28;20452;-70
2022/10/26 10:36:56;;;;;;;3.07;1.53;;;36.40;48.90;;;;;;5062036;28;20409;-71
2022/10/26 10:39:34;;;;;;;2.87;2.00;;;37.10;50.10;;;;;;5057585;28;20467;-71
2022/10/26 10:42:01;;;;;;;2.67;1.30;;;38.00;47.90;;;;;;5092717;28;20405;-71
2022/10/26 10:44:30;;;;;;;3.10;1.60;;;37.40;46.70;;;;;;5059379;28;20401;-70
2022/10/26 10:47:04;;;;;;;3.47;1.90;;;36.70;48.00;;;;;;5077475;28;20422;-71
2022/10/26 10:49:31;;;;;;;2.53;2.00;;;36.70;48.10;;;;;;5080689;28;20462;-71
2022/10/26 10:51:57;;;;;;;1.87;1.33;;;37.40;47.90;;;;;;5079005;28;20425;-71
2022/10/26 10:54:23;;;;;;;2.53;1.70;;;36.90;47.20;;;;;;5080352;28;20619;-72
2022/10/26 10:56:59;;;;;;;2.30;1.73;;;36.20;47.50;;;;;;5060362;28;20441;-71
2022/10/26 10:59:49;;;;;;;4.77;1.57;;;35.90;48.40;;;;;;5093153;28;20281;-72
2022/10/26 11:02:40;;;;;;;3.23;1.50;;;36.00;48.20;;;;;;5093118;28;20409;-72
2022/10/26 11:05:42;;;;;;;2.00;1.30;;;35.50;48.30;;;;;;5090944;28;20412;-71
2022/10/26 11:08:18;;;;;;;2.30;1.40;;;35.30;48.80;;;;;;5072132;28;20580;-70
2022/10/26 11:10:50;;;;;;;2.53;1.50;;;34.80;49.00;;;;;;5072293;28;20435;-70
2022/10/26 11:13:22;;;;;;;2.10;1.43;;;35.70;49.50;;;;;;5072265;28;20403;-70
2022/10/26 11:15:54;;;;;;;2.47;1.53;;;35.90;49.60;;;;;;5063677;28;20417;-70
2022/10/26 11:18:49;;;;;;;1.60;1.20;;;35.90;47.80;;;;;;5052486;28;20828;-70
2022/10/26 11:21:22;;;;;;;2.13;1.50;;;35.30;49.50;;;;;;5055139;28;20416;-72
2022/10/26 11:24:17;;;;;;;3.90;1.43;;;35.20;48.80;;;;;;5087773;28;20503;-71
2022/10/26 11:26:52;;;;;;;3.43;1.20;;;34.50;49.00;;;;;;5071996;28;20432;-71
2022/10/26 11:29:41;;;;;;;4.50;1.77;;;33.50;50.30;;;;;;5078763;28;20436;-71
2022/10/26 11:32:07;;;;;;;3.57;1.40;;;33.60;50.60;;;;;;5080090;28;20405;-71
2022/10/26 11:34:55;;;;;;;2.50;1.57;;;34.20;51.00;;;;;;5077820;28;20456;-71
2022/10/26 11:37:58;;;;;;;2.63;1.67;;;34.50;49.80;;;;;;5055230;28;20170;-71
2022/10/26 11:40:32;;;;;;;1.73;1.00;;;34.80;49.30;;;;;;5052639;28;20412;-71
2022/10/26 11:43:13;;;;;;;3.30;2.77;;;34.60;49.60;;;;;;5052809;28;20381;-71
2022/10/26 11:45:42;;;;;;;8.47;1.73;;;35.00;50.60;;;;;;5063984;28;20408;-70
2022/10/26 11:48:32;;;;;;;3.03;1.37;;;35.60;49.30;;;;;;5073007;28;20924;-71
2022/10/26 11:50:59;;;;;;;2.50;1.37;;;36.00;47.60;;;;;;5073550;28;20397;-72
2022/10/26 11:53:29;;;;;;;5.23;1.57;;;35.20;47.30;;;;;;5072097;28;20392;-71
2022/10/26 11:55:56;;;;;;;4.17;1.70;;;34.80;49.00;;;;;;5060159;28;20877;-70
2022/10/26 11:58:24;;;;;;;1.70;1.33;;;34.60;48.50;;;;;;5088821;28;20436;-71
2022/10/26 12:01:00;;;;;;;1.40;1.00;;;33.80;49.60;;;;;;5087496;28;20764;-70
2022/10/26 12:03:29;;;;;;;1.83;1.10;;;33.90;49.90;;;;;;5051611;28;20400;-70
2022/10/26 12:05:55;;;;;;;2.10;1.20;;;34.60;49.70;;;;;;5065148;28;20473;-70
2022/10/26 12:08:35;;;;;;;2.97;1.30;;;35.30;49.30;;;;;;5071399;28;20452;-71
2022/10/26 12:11:04;;;;;;;1.50;1.20;;;35.40;48.10;;;;;;5071681;28;20169;-71
2022/10/26 12:14:02;;;;;;;3.77;1.60;;;35.70;48.70;;;;;;5071471;28;20451;-71
2022/10/26 12:16:39;;;;;;;2.00;1.20;;;36.10;47.00;;;;;;5032125;28;20496;-71
2022/10/26 12:19:18;;;;;;;1.80;1.33;;;35.70;47.80;;;;;;5031674;28;21142;-71
2022/10/26 12:21:47;;;;;;;1.90;1.30;;;35.60;47.80;;;;;;5032035;28;20805;-70
2022/10/26 12:24:21;;;;;;;9.93;1.97;;;35.30;48.00;;;;;;5033880;28;20409;-70
2022/10/26 12:26:51;;;;;;;2.40;1.00;;;34.20;48.30;;;;;;5052146;28;20443;-70
2022/10/26 12:29:43;;;;;;;1.63;1.17;;;33.00;49.40;;;;;;5051484;28;20436;-70
2022/10/26 12:32:27;;;;;;;1.93;1.10;;;31.80;51.40;;;;;;5058247;28;20906;-71
2022/10/26 12:34:53;;;;;;;2.13;1.13;;;31.50;53.80;;;;;;5061338;28;20972;-70
2022/10/26 12:37:34;;;;;;;1.97;1.30;;;31.90;53.20;;;;;;5075099;28;20404;-70
2022/10/26 12:40:33;;;;;;;3.50;1.20;;;32.10;52.60;;;;;;5075337;28;20420;-70
2022/10/26 12:43:34;;;;;;;2.50;1.00;;;32.80;53.10;;;;;;5081514;28;20429;-71
2022/10/26 12:46:12;;;;;;;2.70;1.20;;;33.20;51.30;;;;;;5059955;28;20973;-71
2022/10/26 12:48:41;;;;;;;4.40;1.77;;;33.20;51.70;;;;;;5054712;28;20417;-70
2022/10/26 12:51:23;;;;;;;6.50;1.23;;;33.20;51.30;;;;;;5054908;28;20488;-70
2022/10/26 12:54:30;;;;;;;1.90;1.20;;;33.00;51.10;;;;;;5054601;28;20440;-71
2022/10/26 12:57:31;;;;;;;2.40;1.10;;;32.20;51.70;;;;;;5074825;28;21112;-71
2022/10/26 13:00:04;;;;;;;4.63;1.07;;;32.50;53.50;;;;;;5074592;28;20416;-70
2022/10/26 13:02:49;;;;;;;2.50;1.10;;;33.30;51.00;;;;;;5075401;28;20454;-71
2022/10/26 13:05:56;;;;;;;1.50;0.90;;;33.20;50.50;;;;;;5062364;28;20421;-71
2022/10/26 13:08:22;;;;;;;1.50;1.30;;;33.40;50.40;;;;;;5054939;28;20421;-70
2022/10/26 13:11:15;;;;;;;2.03;1.03;;;32.70;50.10;;;;;;5054421;28;20408;-70